Du har inga inställningar för hoppväder.nu

Hoppväder.nu

Senast uppdaterat 05:36

UTC-tid

2021-03-01 kl. 04:36


Sol och måne

Solen går upp 6:47 och går ner 17:24 (beräknade cirkatider)
Nästa fullmåne blir om 27 dagar (2021-03-28)

METAR

ESMQ (Kalmar)
(16 minuter sedan)
ESMQ 010420Z AUTO 18004KT 9999 R16///// R34/P1500N NCD M02/M02 Q1030=



ESMX (Växjö)
(16 minuter sedan)
ESMX 010420Z AUTO 23005KT 0450 R01/P2000D R19/1100U FZFG OVC001/// M01/M01 Q1030=



ESMK (Ronneby)
(16 minuter sedan)
ESMK 010420Z AUTO 00000KT 0800 R01/P2000N R19/P2000N // BKN003/// M03/M03 Q1032=



ESSV (Visby)
(16 minuter sedan)
ESSV 010420Z AUTO 20006KT 9999 NCD 00/M01 Q1028=






TAF

ESMQ (Kalmar)
ESMQ



ESMX (Växjö)
ESMX



ESMK (Ronneby)
ESMK



ESSV (Visby)
(66 minuter sedan)
ESSV 010330Z 0104/0112 25009KT CAVOK=





Kodnycklar till TAF och METAR






LHP

(Borglanda är område se22a i Delområde 2)

Prognos är inte uppdaterad






Preliminär prognos